Monitor, WA

6:31 AM PDT on August 28, 2014 (GMT -0700)
Sunnyslope | Change Station
CLOSE
Current Station
Personal Weather Station
Location: Wenatchee, WA
Elevation: 1168 ft
Nearby Weather Stations

Elev 1168 ft 47.49 °N, 120.36 °W | Updated 11 minutes ago

Partly Cloudy
Partly Cloudy
71.1 °F
Feels Like 77 °F
N
6.3
Wind Variable Wind from North

Today
High -- | Low -- °F
--% Chance of Precip.
Yesterday
High -- | Low -- °F
Precip. -- in
6:15 AM 7:49 PM
Waxing Crescent, 8% visible
Pressure 29.92 in
Visibility 10.0 miles
Clouds Clear
Heat Index 77 °F
Dew Point 50 °F
Humidity 47%
Rainfall 0.00 in
Snow Depth 1 in , 0 in
UV 0 out of 12
Pollen 4.90 out of 12
Air Quality Not available.
Flu Activity Not available.
METAR KEAT 281255Z AUTO 30007KT 10SM CLR 22/09 A2996 RMK AO2 SLP132 T02220089

More Conditions Fewer Conditions

Pressure 29.92 in
Visibility 10.0 miles
Clouds Clear
Heat Index 77 °F
Dew Point 50 °F
Humidity 47%
Rainfall 0.00 in
Snow Depth 1 in , 0 in
UV 0 out of 12
Pollen 4.90 out of 12
Air Quality Not available.
Flu Activity Not available.
METAR KEAT 281255Z AUTO 30007KT 10SM CLR 22/09 A2996 RMK AO2 SLP132 T02220089

More Conditions Fewer Conditions

10-Day Weather Forecast

Almanac

Astronomy

Aug. 28, 2014 Rise Set
Actual Time 6:15 AM PDT 7:49 PM PDT
Civil Twilight 5:43 AM PDT 8:21 PM PDT
Nautical Twilight 5:03 AM PDT 9:00 PM PDT
Astronomical Twilight 4:21 AM PDT 9:43 PM PDT
Moon 9:27 AM PDT 8:59 PM PDT
Length of Visible Light 14h 38m
Length of Day
13h 34m
Tomorrow will be 3m 16s shorter.
Waxing Crescent, 8% of the Moon is Illuminated
Today
Waxing Crescent
Sep 2
First Quarter
Sep 8
Full
Sep 15
Last Quarter
Sep 24
New

Today's Extremes

State Highs State Lows

Community

WunderPhotos

Upload Photos

1,747,947 photos uploaded!

Nearby

Snow Depth

Station Depth Elevation
Grouse Camp 1 in 5380 ft
Trough 0 in 5300 ft
Sasse Ridge 0 in 4200 ft
Stevens Pass 0 in 4070 ft
Stampede Pass 2 in 3860 ft

Earthquake Activity

City Distance Mag. Time & Date
No recent earthquake activity has been reported nearby.
Minimum magnitude displayed is 2.5.

Coastal Water Temperatures

Place Temperature
No Stations Reporting

Nearby Weather Stations